Time;durP1;ratioP1;P1;durP2;ratioP2;P2;SDS_P1;SDS_P2;PMS_P1;PMS_P2;Temp;Humidity;BMP_temperature;BMP_pressure;BME280_temperature;BME280_humidity;BME280_pressure;Samples;Min_cycle;Max_cycle;Signal;HPM_P1;HPM_P2
2022/01/10 00:00:54;;;;;;;10.13;5.40;;;-0.80;99.90;;;-2.89;100.00;100677.13;2567922;30;138298;-40
2022/01/10 00:03:24;;;;;;;12.35;5.80;;;-0.80;99.90;;;-2.91;100.00;100674.56;2568794;30;137590;-40
2022/01/10 00:05:52;;;;;;;10.35;5.30;;;-0.80;99.90;;;-2.95;100.00;100680.28;2568263;30;137858;-39
2022/01/10 00:08:19;;;;;;;10.23;5.53;;;-0.90;99.90;;;-2.95;100.00;100688.28;2568731;30;137591;-40
2022/01/10 00:10:47;;;;;;;11.05;5.68;;;-0.90;99.90;;;-2.97;100.00;100688.44;2568037;30;137891;-40
2022/01/10 00:13:15;;;;;;;;;;;-0.90;99.90;;;-2.96;100.00;100689.25;2568473;30;137425;-39
2022/01/10 00:15:44;;;;;;;13.13;6.38;;;-0.90;99.90;;;-2.96;100.00;100694.59;2566165;30;138241;-40
2022/01/10 00:18:13;;;;;;;13.93;6.32;;;-0.90;99.90;;;-2.95;100.00;100697.16;2568066;30;136830;-40
2022/01/10 00:20:40;;;;;;;11.35;6.15;;;-0.90;99.90;;;-2.96;100.00;100700.78;2567615;30;138349;-40
2022/01/10 00:23:09;;;;;;;15.88;6.82;;;-0.90;99.90;;;-2.96;100.00;100699.94;2568195;30;137592;-40
2022/01/10 00:25:37;;;;;;;12.52;6.53;;;-0.90;99.90;;;-2.99;100.00;100706.41;2567360;30;138684;-40
2022/01/10 00:28:05;;;;;;;13.38;6.72;;;-0.90;99.90;;;-3.01;100.00;100705.69;2569131;30;137608;-40
2022/01/10 00:30:33;;;;;;;14.95;6.57;;;-0.90;99.90;;;-3.04;100.00;100709.44;2567765;30;137418;-40
2022/01/10 00:33:00;;;;;;;11.15;6.10;;;-0.90;99.90;;;-3.06;100.00;100711.38;2567418;30;137605;-40
2022/01/10 00:35:28;;;;;;;12.10;6.25;;;-0.90;99.90;;;-3.06;100.00;100719.41;2569263;30;139129;-40
2022/01/10 00:37:55;;;;;;;12.00;6.05;;;-1.00;99.90;;;-3.08;100.00;100718.69;2567501;30;137517;-40
2022/01/10 00:40:23;;;;;;;12.00;6.28;;;-1.00;99.90;;;-3.09;100.00;100724.13;2568149;30;138334;-36
2022/01/10 00:42:55;;;;;;;13.07;6.70;;;-1.00;99.90;;;-3.10;100.00;100728.63;2566392;30;136853;-37
2022/01/10 00:45:27;;;;;;;10.68;5.85;;;-1.00;99.90;;;-3.11;100.00;100737.63;2568225;30;138943;-37
2022/01/10 00:47:58;;;;;;;13.95;6.90;;;-1.00;99.90;;;-3.12;100.00;100735.91;2568343;30;137641;-37
2022/01/10 00:50:28;;;;;;;11.98;6.10;;;-1.00;99.90;;;-3.16;100.00;100744.28;2566895;30;139307;-36
2022/01/10 00:52:57;;;;;;;10.80;6.15;;;-1.00;99.90;;;-3.20;100.00;100751.69;2568896;30;138024;-37
2022/01/10 00:55:25;;;;;;;11.48;6.20;;;-1.10;99.90;;;-3.24;100.00;100748.44;2568466;30;138263;-37
2022/01/10 00:57:52;;;;;;;12.27;6.47;;;-1.10;99.90;;;-3.28;100.00;100749.66;2567412;30;137320;-37
2022/01/10 01:00:24;;;;;;;18.52;6.50;;;-1.20;99.90;;;-3.33;100.00;100759.84;2567382;30;138434;-37
2022/01/10 01:02:51;;;;;;;15.07;7.10;;;-1.20;99.90;;;-3.39;100.00;100749.66;2566426;30;138118;-37
2022/01/10 01:05:21;;;;;;;13.23;6.15;;;-1.30;99.90;;;-3.41;100.00;100754.28;2566771;30;139586;-37
2022/01/10 01:07:49;;;;;;;10.82;5.50;;;-1.30;99.90;;;-3.42;100.00;100765.91;2565523;30;137546;-37
2022/01/10 01:13:03;;;;;;;13.45;6.05;;;-1.40;99.90;;;-3.49;100.00;100771.75;2567306;30;137532;-37
2022/01/10 01:15:33;;;;;;;12.60;6.15;;;-1.40;99.90;;;-3.47;100.00;100777.81;2568671;30;139166;-37
2022/01/10 01:25:58;;;;;;;11.98;5.60;;;-1.30;99.90;;;-3.41;100.00;100797.84;2567526;30;137689;-37
2022/01/10 01:28:26;;;;;;;14.40;6.70;;;-1.30;99.90;;;-3.45;100.00;100804.34;2568338;30;137122;-37
2022/01/10 01:30:54;;;;;;;13.27;6.22;;;-1.30;99.90;;;-3.46;100.00;100808.00;2567729;30;139716;-37
2022/01/10 01:33:24;;;;;;;;;;;-1.40;99.90;;;-3.45;100.00;100809.69;2567889;30;139769;-37
2022/01/10 01:35:53;;;;;;;12.10;6.07;;;-1.40;99.90;;;-3.40;100.00;100823.53;2566520;30;139036;-37
2022/01/10 01:38:22;;;;;;;13.60;6.20;;;-1.30;99.90;;;-3.42;100.00;100829.97;2565652;30;139718;-37
2022/01/10 01:40:57;;;;;;;;;;;-1.30;99.90;;;-3.44;100.00;100832.75;2566118;30;138669;-37
2022/01/10 01:43:25;;;;;;;12.15;5.50;;;-1.40;99.90;;;-3.49;100.00;100830.44;2568388;30;138699;-37
2022/01/10 01:45:52;;;;;;;;;;;-1.40;99.90;;;-3.54;100.00;100827.31;2565912;30;139126;-37
2022/01/10 01:48:21;;;;;;;11.48;5.07;;;-1.40;99.90;;;-3.54;100.00;100831.78;2568618;30;137261;-37
2022/01/10 01:50:48;;;;;;;14.00;6.38;;;-1.40;99.90;;;-3.53;100.00;100833.47;2569739;30;136914;-37
2022/01/10 01:53:17;;;;;;;9.95;5.47;;;-1.50;99.90;;;-3.55;100.00;100846.06;2565850;30;137461;-37
2022/01/10 01:55:45;;;;;;;15.38;5.85;;;-1.40;99.90;;;-3.57;100.00;100848.03;2567877;30;138207;-37
2022/01/10 01:58:12;;;;;;;13.25;6.65;;;-1.50;99.90;;;-3.64;100.00;100845.84;2568045;30;139598;-37
2022/01/10 02:00:40;;;;;;;;;;;-1.50;99.90;;;-3.63;100.00;100854.66;2567751;30;140462;-37
2022/01/10 02:03:08;;;;;;;10.88;5.45;;;-1.50;99.90;;;-3.64;100.00;100863.66;2568851;30;139255;-37
2022/01/10 02:05:36;;;;;;;9.82;5.82;;;-1.50;99.90;;;-3.64;100.00;100866.31;2567690;30;138204;-37
2022/01/10 02:08:04;;;;;;;12.60;7.13;;;-1.50;99.90;;;-3.66;100.00;100869.13;2566889;30;137415;-37
2022/01/10 02:10:31;;;;;;;10.85;5.63;;;-1.60;99.90;;;-3.61;100.00;100877.59;2568420;30;139318;-37
2022/01/10 02:12:59;;;;;;;12.80;5.93;;;-1.50;99.90;;;-3.63;100.00;100876.88;2567999;30;139800;-37
2022/01/10 02:15:42;;;;;;;;;;;-1.50;99.90;;;-3.64;100.00;100884.97;2565231;30;140153;-37
2022/01/10 02:18:16;;;;;;;11.35;5.25;;;-1.50;99.90;;;-3.66;100.00;100878.91;2567523;30;136807;-37
2022/01/10 02:20:48;;;;;;;9.35;5.82;;;-1.50;99.90;;;-3.69;100.00;100879.16;2567770;30;137078;-37
2022/01/10 02:23:18;;;;;;;13.73;7.10;;;-1.60;99.90;;;-3.69;100.00;100888.03;2567858;30;139657;-37
2022/01/10 02:25:57;;;;;;;17.65;7.05;;;-1.60;99.90;;;-3.71;100.00;100889.09;2566801;30;139620;-37
2022/01/10 02:28:32;;;;;;;14.48;5.88;;;-1.60;99.90;;;-3.74;100.00;100889.34;2566855;30;139161;-37
2022/01/10 02:31:00;;;;;;;13.70;6.55;;;-1.60;99.90;;;-3.80;100.00;100891.50;2566319;30;139829;-37
2022/01/10 02:33:31;;;;;;;16.95;6.47;;;-1.60;99.90;;;-3.85;100.00;100900.81;2567263;30;138407;-37
2022/01/10 02:38:49;;;;;;;14.63;6.60;;;-1.70;99.90;;;-3.81;100.00;100911.16;2567902;30;137465;-37
2022/01/10 02:41:47;;;;;;;14.15;6.95;;;-1.70;99.90;;;-3.76;100.00;100911.63;2567819;30;140043;-37
2022/01/10 02:44:17;;;;;;;15.98;6.50;;;-1.70;99.90;;;-3.76;100.00;100916.97;2567765;30;138416;-37
2022/01/10 02:46:46;;;;;;;11.70;6.32;;;-1.70;99.90;;;-3.76;100.00;100918.78;2568948;30;138295;-37
2022/01/10 02:49:28;;;;;;;12.40;5.85;;;-1.70;99.90;;;-3.81;100.00;100929.81;2567367;30;139854;-37
2022/01/10 02:51:58;;;;;;;18.58;6.88;;;-1.70;99.90;;;-3.85;100.00;100932.81;2567045;30;141055;-37
2022/01/10 02:54:28;;;;;;;17.23;6.72;;;-1.70;99.90;;;-3.82;100.00;100929.91;2567140;30;137983;-37
2022/01/10 02:56:57;;;;;;;12.30;6.43;;;-1.70;99.90;;;-3.78;100.00;100947.38;2567197;30;140167;-37
2022/01/10 02:59:27;;;;;;;14.27;7.03;;;-1.70;99.90;;;-3.82;100.00;100952.09;2567396;30;138434;-37
2022/01/10 03:01:55;;;;;;;10.85;6.40;;;-1.70;99.90;;;-3.83;100.00;100953.06;2567225;30;138386;-37
2022/01/10 03:04:24;;;;;;;14.60;6.65;;;-1.70;99.90;;;-3.78;100.00;100958.03;2567790;30;136787;-37
2022/01/10 03:06:51;;;;;;;13.77;6.03;;;-1.70;99.90;;;-3.81;100.00;100964.47;2565370;30;139862;-37
2022/01/10 03:09:19;;;;;;;13.40;6.13;;;-1.70;99.90;;;-3.76;100.00;100966.78;2568794;30;138557;-37
2022/01/10 03:11:47;;;;;;;15.05;6.68;;;-1.70;99.90;;;-3.77;100.00;100965.06;2566654;30;138791;-37
2022/01/10 03:14:16;;;;;;;12.48;6.38;;;-1.70;99.90;;;-3.73;100.00;100960.38;2567990;30;139610;-37
2022/01/10 03:16:43;;;;;;;14.48;6.50;;;-1.70;99.90;;;-3.69;100.00;100978.69;2567726;30;138065;-37
2022/01/10 03:19:11;;;;;;;13.00;6.28;;;-1.60;99.90;;;-3.70;100.00;100977.00;2567948;30;137453;-37
2022/01/10 03:21:39;;;;;;;11.95;5.82;;;-1.60;99.90;;;-3.67;100.00;100984.75;2567675;30;138974;-37
2022/01/10 03:24:06;;;;;;;13.30;6.75;;;-1.60;99.90;;;-3.67;100.00;100992.78;2566873;30;139198;-37
2022/01/10 03:26:34;;;;;;;15.43;6.97;;;-1.60;99.90;;;-3.63;100.00;100996.91;2568482;30;138447;-37
2022/01/10 03:29:04;;;;;;;15.90;6.68;;;-1.60;99.90;;;-3.64;100.00;100997.88;2567633;30;138487;-37
2022/01/10 03:31:31;;;;;;;16.33;6.53;;;-1.60;99.90;;;-3.67;100.00;101002.56;2567807;30;139164;-37
2022/01/10 03:34:00;;;;;;;14.10;6.35;;;-1.60;99.90;;;-3.65;100.00;100995.31;2567290;30;139805;-37
2022/01/10 03:36:30;;;;;;;15.27;6.35;;;-1.60;99.90;;;-3.69;100.00;100994.69;2568772;30;138541;-37
2022/01/10 03:38:58;;;;;;;18.55;7.22;;;-1.60;99.90;;;-3.58;100.00;101009.03;2567775;30;138381;-37
2022/01/10 03:41:25;;;;;;;17.08;7.15;;;-1.50;99.90;;;-3.56;100.00;101013.31;2569408;30;139185;-37
2022/01/10 03:43:53;;;;;;;;;;;-1.50;99.90;;;-3.53;100.00;101013.06;2569723;30;137916;-37
2022/01/10 03:46:21;;;;;;;14.30;6.50;;;-1.50;99.90;;;-3.55;100.00;101012.34;2566679;30;139693;-37
2022/01/10 03:48:49;;;;;;;16.20;6.63;;;-1.40;99.90;;;-3.53;100.00;101015.72;2568481;30;138362;-37
2022/01/10 03:51:17;;;;;;;17.27;6.93;;;-1.50;99.90;;;-3.43;100.00;101015.91;2568258;30;138335;-37
2022/01/10 03:53:45;;;;;;;14.95;7.20;;;-1.40;99.90;;;-3.34;100.00;101023.19;2567772;30;136772;-37
2022/01/10 03:56:12;;;;;;;16.48;7.28;;;-1.30;99.90;;;-3.28;100.00;101029.00;2567106;30;139641;-37
2022/01/10 03:58:44;;;;;;;16.10;7.50;;;-1.30;99.90;;;-3.26;100.00;101035.09;2567667;30;138675;-37
2022/01/10 04:01:13;;;;;;;14.68;7.55;;;-1.20;99.90;;;-3.30;100.00;101033.63;2567911;30;138250;-37
2022/01/10 04:03:45;;;;;;;14.20;6.53;;;-1.30;99.90;;;-3.25;100.00;101040.31;2567851;30;139718;-37
2022/01/10 04:06:14;;;;;;;11.45;6.43;;;-1.20;99.90;;;-3.26;100.00;101043.97;2567472;30;139518;-37
2022/01/10 04:08:41;;;;;;;10.20;5.88;;;-1.20;99.90;;;-3.21;100.00;101046.25;2567303;30;138307;-37
2022/01/10 04:11:09;;;;;;;14.43;6.80;;;-1.20;99.90;;;-3.16;100.00;101049.44;2567064;30;139918;-37
2022/01/10 04:13:39;;;;;;;13.45;6.93;;;-1.20;99.90;;;-3.14;100.00;101051.97;2567255;30;137601;-37
2022/01/10 04:16:08;;;;;;;12.77;6.90;;;-1.10;99.90;;;-3.11;100.00;101060.63;2568548;30;139712;-37
2022/01/10 04:18:35;;;;;;;14.27;6.93;;;-1.10;99.90;;;-3.08;100.00;101065.72;2568687;30;139279;-37
2022/01/10 04:21:03;;;;;;;16.52;7.15;;;-1.10;99.90;;;-2.95;100.00;101072.78;2567211;30;137713;-37
2022/01/10 04:23:31;;;;;;;15.75;7.85;;;-1.00;99.90;;;-2.91;100.00;101074.28;2567878;30;137012;-37
2022/01/10 04:25:59;;;;;;;14.25;6.78;;;-0.90;99.90;;;-2.85;100.00;101084.47;2566898;30;138153;-37
2022/01/10 04:28:29;;;;;;;18.63;7.63;;;-0.90;99.90;;;-2.80;100.00;101084.09;2565915;30;138202;-37
2022/01/10 04:30:57;;;;;;;12.90;7.07;;;-0.80;99.90;;;-2.75;100.00;101095.28;2567032;30;139178;-37
2022/01/10 04:33:29;;;;;;;15.65;7.80;;;-0.80;99.90;;;-2.70;100.00;101101.13;2568233;30;139525;-37
2022/01/10 04:35:58;;;;;;;17.80;7.90;;;-0.70;99.90;;;-2.64;100.00;101106.00;2566466;30;139992;-37
2022/01/10 04:38:28;;;;;;;17.23;7.38;;;-0.70;99.90;;;-2.58;100.00;101110.00;2567263;30;139458;-37
2022/01/10 04:40:56;;;;;;;15.43;7.10;;;-0.60;99.90;;;-2.55;100.00;101116.91;2568209;30;140702;-38
2022/01/10 04:43:24;;;;;;;17.48;8.00;;;-0.60;99.90;;;-2.49;100.00;101121.81;2566928;30;138851;-37
2022/01/10 04:45:56;;;;;;;13.40;7.18;;;-0.60;99.90;;;-2.50;100.00;101120.94;2566492;30;139793;-37
2022/01/10 04:48:24;;;;;;;15.18;6.90;;;-0.50;99.90;;;-2.41;100.00;101134.53;2566009;30;139985;-37
2022/01/10 04:51:15;;;;;;;14.85;7.63;;;-0.50;99.90;;;-2.44;100.00;101132.13;2567744;30;137352;-37
2022/01/10 04:53:47;;;;;;;15.57;8.10;;;-0.50;99.90;;;-2.39;100.00;101138.81;2567459;30;139169;-37
2022/01/10 04:56:17;;;;;;;18.45;7.55;;;-0.40;99.90;;;-2.37;100.00;101152.06;2568129;30;140271;-37
2022/01/10 04:58:50;;;;;;;14.80;6.95;;;-0.40;99.90;;;-2.39;100.00;101159.31;2567995;30;137457;-37
2022/01/10 05:01:18;;;;;;;15.73;6.82;;;-0.40;99.90;;;-2.39;100.00;101162.88;2568202;30;138620;-37
2022/01/10 05:03:47;;;;;;;13.02;7.10;;;-0.40;99.90;;;-2.35;100.00;101168.84;2568208;30;137487;-37
2022/01/10 05:06:15;;;;;;;15.45;6.95;;;-0.40;99.90;;;-2.37;100.00;101168.09;2568350;30;138540;-37
2022/01/10 05:08:44;;;;;;;14.50;7.25;;;-0.40;99.90;;;-2.33;100.00;101180.25;2567885;30;138533;-37
2022/01/10 05:11:16;;;;;;;14.75;6.85;;;-0.40;99.90;;;-2.34;100.00;101179.38;2567807;30;139672;-37
2022/01/10 05:13:44;;;;;;;13.15;7.75;;;-0.40;99.90;;;-2.35;100.00;101182.19;2567857;30;136984;-37
2022/01/10 05:16:13;;;;;;;;;;;-0.40;99.90;;;-2.37;100.00;101186.81;2569210;30;139426;-37
2022/01/10 05:18:41;;;;;;;11.00;6.77;;;-0.40;99.90;;;-2.40;100.00;101187.03;2567869;30;137195;-37
2022/01/10 05:21:10;;;;;;;15.10;7.13;;;-0.40;99.90;;;-2.39;100.00;101192.28;2567466;30;139309;-37
2022/01/10 05:23:37;;;;;;;14.07;7.45;;;-0.40;99.90;;;-2.40;100.00;101200.38;2567961;30;137149;-37
2022/01/10 05:26:06;;;;;;;18.00;7.53;;;-0.40;99.90;;;-2.42;100.00;101199.66;2567896;30;140182;-37
2022/01/10 05:28:35;;;;;;;13.68;7.07;;;-0.40;99.90;;;-2.45;100.00;101214.13;2567102;30;138822;-37
2022/01/10 05:31:03;;;;;;;12.85;6.15;;;-0.40;99.90;;;-2.50;100.00;101217.16;2567362;30;139586;-37
2022/01/10 05:33:39;;;;;;;15.57;7.40;;;-0.50;99.90;;;-2.50;100.00;101221.66;2568074;30;139275;-37
2022/01/10 05:36:06;;;;;;;16.27;7.53;;;-0.50;99.90;;;-2.50;100.00;101233.19;2568449;30;136798;-37
2022/01/10 05:38:34;;;;;;;18.27;8.02;;;-0.50;99.90;;;-2.44;100.00;101234.53;2568059;30;137551;-37
2022/01/10 05:41:02;;;;;;;19.23;7.32;;;-0.40;99.90;;;-2.47;100.00;101224.09;2566963;30;138569;-37
2022/01/10 05:43:29;;;;;;;18.30;7.50;;;-0.40;99.90;;;-2.40;100.00;101240.47;2567733;30;138251;-37
2022/01/10 05:45:58;;;;;;;17.35;6.97;;;-0.40;99.90;;;-2.47;100.00;101248.97;2567974;30;139363;-37
2022/01/10 05:48:28;;;;;;;18.42;7.22;;;-0.50;99.90;;;-2.56;100.00;101260.38;2566832;30;138942;-37
2022/01/10 05:51:00;;;;;;;13.02;6.80;;;-0.50;99.90;;;-2.63;100.00;101264.47;2567604;30;140700;-37
2022/01/10 05:53:30;;;;;;;15.05;7.22;;;-0.60;99.90;;;-2.68;100.00;101269.28;2568063;30;139094;-37
2022/01/10 05:55:57;;;;;;;;;;;-0.60;99.90;;;-2.71;100.00;101278.41;2567645;30;140503;-37
2022/01/10 05:58:27;;;;;;;16.52;7.65;;;-0.70;99.90;;;-2.81;100.00;101278.25;2567288;30;139363;-37
2022/01/10 06:00:55;;;;;;;13.65;6.90;;;-0.70;99.90;;;-2.86;100.00;101295.56;2568512;30;139096;-37
2022/01/10 06:03:23;;;;;;;16.00;7.35;;;-0.80;99.90;;;-2.89;100.00;101288.66;2567823;30;137056;-37
2022/01/10 06:05:57;;;;;;;16.05;6.55;;;-0.80;99.90;;;-2.95;100.00;101300.63;2567722;30;139107;-37
2022/01/10 06:08:25;;;;;;;14.25;6.45;;;-0.90;99.90;;;-2.97;100.00;101299.00;2566602;30;139552;-37
2022/01/10 06:10:52;;;;;;;14.55;6.95;;;-0.90;99.90;;;-3.00;100.00;101307.25;2566510;30;138541;-37
2022/01/10 06:13:31;;;;;;;15.85;6.70;;;-0.90;99.90;;;-3.04;100.00;101318.16;2567097;30;138764;-37
2022/01/10 06:15:58;;;;;;;13.50;6.47;;;-1.00;99.90;;;-3.05;100.00;101313.78;2567312;30;141296;-37
2022/01/10 06:18:26;;;;;;;15.70;6.97;;;-1.00;99.90;;;-3.10;100.00;101323.09;2567838;30;139713;-37
2022/01/10 06:20:54;;;;;;;14.77;6.72;;;-1.00;99.90;;;-3.14;100.00;101325.16;2567364;30;138380;-37
2022/01/10 06:23:22;;;;;;;13.43;6.13;;;-1.00;99.90;;;-3.20;100.00;101325.56;2567418;30;137664;-37
2022/01/10 06:25:51;;;;;;;12.15;6.05;;;-1.10;99.90;;;-3.21;100.00;101334.53;2566959;30;140122;-37
2022/01/10 06:28:19;;;;;;;14.60;6.43;;;-1.10;99.90;;;-3.26;100.00;101331.34;2567922;30;138868;-37
2022/01/10 06:30:50;;;;;;;14.23;7.05;;;-1.20;99.90;;;-3.25;100.00;101331.25;2567192;30;140348;-37
2022/01/10 06:33:19;;;;;;;18.08;7.57;;;-1.20;99.90;;;-3.25;100.00;101341.06;2567032;30;139529;-37
2022/01/10 06:35:47;;;;;;;16.63;6.82;;;-1.20;99.90;;;-3.27;100.00;101343.84;2567296;30;139426;-37
2022/01/10 06:38:15;;;;;;;14.02;7.05;;;-1.20;99.90;;;-3.30;100.00;101349.41;2567330;30;137387;-37
2022/01/10 06:40:45;;;;;;;16.75;7.28;;;-1.20;99.90;;;-3.38;100.00;101341.94;2565869;30;140335;31
2022/01/10 12:43:34;;;;;;;22.80;8.73;;;-1.20;99.90;;;3.90;100.00;101928.66;2567665;30;137306;-38
2022/01/10 12:46:03;;;;;;;29.50;10.68;;;;;;;4.00;100.00;101942.16;2568439;30;138227;-38
2022/01/10 12:48:31;;;;;;;25.27;10.02;;;;;;;4.06;100.00;101941.59;2568389;30;138246;-38
2022/01/10 12:50:59;;;;;;;;;;;5.60;99.90;;;4.09;100.00;101943.13;2568277;30;138467;-38
2022/01/10 12:53:26;;;;;;;20.67;8.32;;;5.70;99.90;;;4.12;98.59;101945.56;2566819;30;137793;-38
2022/01/10 12:55:55;;;;;;;19.45;8.45;;;5.70;99.90;;;4.16;100.00;101942.41;2566677;30;137891;-38
2022/01/10 12:58:23;;;;;;;20.13;8.73;;;5.70;99.90;;;4.18;98.58;101939.59;2568098;30;137571;-37
2022/01/10 13:00:51;;;;;;;22.80;8.80;;;5.80;99.90;;;4.24;98.98;101944.41;2568293;30;138363;-37
2022/01/10 13:03:19;;;;;;;19.58;8.73;;;5.80;99.90;;;4.21;98.97;101941.13;2566526;30;137392;-37
2022/01/10 13:05:47;;;;;;;23.25;8.98;;;5.80;99.90;;;4.24;99.04;101954.34;2568083;30;138318;-39
2022/01/10 13:08:16;;;;;;;;;;;5.80;99.90;;;4.22;98.76;101949.13;2566565;30;137741;-38
2022/01/10 13:10:46;;;;;;;23.08;9.25;;;5.80;99.90;;;4.23;99.68;101956.22;2567569;30;138162;-38
2022/01/10 13:13:16;;;;;;;22.20;8.57;;;5.80;99.90;;;4.22;99.01;101957.22;2567375;30;136721;-38
2022/01/10 13:15:43;;;;;;;21.13;7.95;;;5.80;99.90;;;4.21;99.60;101960.91;2567352;30;137697;-38
2022/01/10 13:18:12;;;;;;;17.17;7.72;;;5.80;99.90;;;4.21;100.00;101968.16;2567665;30;136682;-38
2022/01/10 13:20:40;;;;;;;19.83;8.52;;;5.80;99.90;;;4.18;98.96;101977.41;2568210;30;138275;-38
2022/01/10 13:23:12;;;;;;;23.00;9.70;;;5.80;99.90;;;4.24;99.48;101981.38;2567607;30;138459;-38
2022/01/10 13:25:45;;;;;;;19.33;8.50;;;5.80;99.90;;;4.21;98.99;101979.81;2566644;30;137169;-38
2022/01/10 13:28:14;;;;;;;20.70;7.90;;;5.80;99.90;;;4.17;99.16;101976.53;2567676;30;136868;-38
2022/01/10 13:30:56;;;;;;;19.02;7.78;;;5.80;99.90;;;4.22;98.87;101986.06;2566295;30;137560;-37
2022/01/10 13:33:44;;;;;;;18.60;8.30;;;5.80;99.90;;;4.26;98.06;101985.66;2568611;30;137731;-38
2022/01/10 13:36:12;;;;;;;17.35;7.88;;;5.90;99.90;;;4.24;97.96;101993.03;2569106;30;139183;-38
2022/01/10 13:38:39;;;;;;;18.95;8.02;;;5.90;99.90;;;4.27;98.14;101997.31;2565787;30;137857;-38
2022/01/10 13:41:10;;;;;;;16.13;7.68;;;5.90;99.90;;;4.24;98.26;102001.16;2567757;30;139161;-38
2022/01/10 13:43:38;;;;;;;;;;;5.90;99.90;;;4.23;97.66;101998.56;2568650;30;137257;-38
2022/01/10 13:46:15;;;;;;;20.02;7.28;;;5.90;99.90;;;4.23;97.00;102001.28;2567833;30;138307;-38
2022/01/10 13:48:48;;;;;;;17.97;7.40;;;5.90;99.90;;;4.21;96.79;102012.25;2567587;30;137616;-38
2022/01/10 13:51:23;;;;;;;19.75;7.20;;;5.90;99.90;;;4.17;98.06;102014.38;2568294;30;138532;-38
2022/01/10 13:53:52;;;;;;;19.20;7.95;;;5.80;99.90;;;4.13;98.20;102021.06;2563556;30;137436;-38
2022/01/10 13:56:28;;;;;;;21.48;8.77;;;5.80;99.90;;;4.11;98.38;102011.38;2568640;30;138188;-38
2022/01/10 13:59:06;;;;;;;22.77;10.10;;;5.80;99.90;;;4.09;98.72;102019.63;2566939;30;137372;-38
2022/01/10 14:01:39;;;;;;;24.30;11.00;;;5.80;99.90;;;4.05;98.39;102017.34;2567366;30;138391;-38
2022/01/10 14:04:26;;;;;;;25.67;10.80;;;5.70;99.90;;;4.06;98.16;102029.84;2568301;30;138379;-37
2022/01/10 14:06:54;;;;;;;26.63;11.07;;;5.70;99.90;;;4.03;98.40;102033.69;2567362;30;138265;-37
2022/01/10 14:09:29;;;;;;;25.23;10.93;;;5.70;99.90;;;3.98;98.74;102035.97;2568332;30;137503;-37
2022/01/10 14:11:56;;;;;;;27.38;12.15;;;5.70;99.90;;;3.95;98.97;102042.50;2568359;30;138054;-38
2022/01/10 14:14:29;;;;;;;27.70;11.15;;;5.60;99.90;;;3.93;98.68;102043.59;2566441;30;137374;-38
2022/01/10 14:16:57;;;;;;;27.92;11.85;;;5.60;99.90;;;3.86;99.05;102041.47;2567886;30;138293;-38
2022/01/10 14:19:26;;;;;;;27.27;11.40;;;;;;;3.83;99.68;102049.84;2567585;30;138187;-38
2022/01/10 14:21:54;;;;;;;24.58;10.68;;;5.50;99.90;;;3.77;99.42;102055.81;2566338;30;139264;-38
2022/01/10 14:24:22;;;;;;;24.35;9.93;;;5.50;99.90;;;3.73;99.85;102062.47;2567403;30;137742;-38
2022/01/10 14:26:51;;;;;;;27.10;11.82;;;5.50;99.90;;;3.71;99.34;102054.50;2567345;30;139177;-38
2022/01/10 14:29:19;;;;;;;33.30;11.52;;;5.40;99.90;;;3.67;99.40;102055.78;2567507;30;137448;-38
2022/01/10 14:31:47;;;;;;;30.65;12.30;;;5.40;99.90;;;3.61;99.78;102061.72;2565727;30;139089;-38
2022/01/10 14:34:17;;;;;;;26.77;11.48;;;5.40;99.90;;;3.57;100.00;102058.44;2567832;30;137170;-38
2022/01/10 14:36:45;;;;;;;25.25;10.70;;;5.30;99.90;;;3.54;100.00;102056.00;2568537;30;138409;-38
2022/01/10 14:39:12;;;;;;;;;;;5.30;99.90;;;3.51;100.00;102055.41;2567665;30;137611;-38
2022/01/10 14:41:40;;;;;;;26.90;12.07;;;5.30;99.90;;;3.44;100.00;102060.47;2568574;30;138456;-38
2022/01/10 14:44:08;;;;;;;28.23;12.50;;;5.20;99.90;;;3.41;100.00;102063.47;2568297;30;136753;-38
2022/01/10 14:46:35;;;;;;;28.02;13.50;;;5.20;99.90;;;3.38;100.00;102067.28;2567093;30;139006;-38
2022/01/10 14:49:04;;;;;;;30.85;12.77;;;5.10;99.90;;;3.35;100.00;102072.97;2567209;30;137088;-38
2022/01/10 14:51:32;;;;;;;33.50;12.68;;;5.10;99.90;;;3.31;100.00;102072.38;2567301;30;138522;-38
2022/01/10 14:54:00;;;;;;;27.20;12.25;;;5.10;99.90;;;3.25;100.00;102078.31;2566342;30;136954;-38
2022/01/10 14:56:27;;;;;;;27.23;11.70;;;5.00;99.90;;;3.20;100.00;102080.56;2564523;30;139188;-38
2022/01/10 14:58:55;;;;;;;26.00;10.73;;;5.00;99.90;;;3.15;100.00;102088.16;2567846;30;138462;-38
2022/01/10 15:01:23;;;;;;;27.88;11.77;;;4.90;99.90;;;3.06;100.00;102089.84;2567145;30;137351;-38
2022/01/10 15:03:50;;;;;;;23.42;10.88;;;4.90;99.90;;;3.01;100.00;102092.03;2568391;30;137512;-38
2022/01/10 15:06:23;;;;;;;24.73;10.98;;;4.80;99.90;;;2.96;100.00;102100.56;2566438;30;138199;-38
2022/01/10 15:08:51;;;;;;;24.45;10.57;;;4.80;99.90;;;2.90;100.00;102111.84;2567483;30;137565;-38
2022/01/10 15:11:19;;;;;;;22.42;10.32;;;4.70;99.90;;;2.80;100.00;102106.38;2566728;30;137166;-38
2022/01/10 15:13:50;;;;;;;22.65;10.48;;;4.60;99.90;;;2.74;100.00;102120.34;2567151;30;137647;-37
2022/01/10 15:16:18;;;;;;;26.45;11.15;;;4.60;99.90;;;2.68;100.00;102124.44;2568337;30;138377;-38
2022/01/10 15:18:45;;;;;;;26.48;10.98;;;4.50;99.90;;;2.60;100.00;102126.91;2567420;30;137019;-38
2022/01/10 15:21:16;;;;;;;30.17;10.85;;;4.40;99.90;;;2.54;100.00;102132.81;2567606;30;136820;-38
2022/01/10 15:23:47;;;;;;;23.92;10.07;;;4.40;99.90;;;2.48;100.00;102146.81;2568083;30;137394;-37
2022/01/10 15:26:16;;;;;;;25.38;9.73;;;4.30;99.90;;;2.38;100.00;102144.00;2566506;30;138063;-38
2022/01/10 15:28:45;;;;;;;22.50;9.55;;;4.30;99.90;;;2.27;100.00;102150.25;2566673;30;137668;-37
2022/01/10 15:31:13;;;;;;;22.80;9.32;;;4.20;99.90;;;2.17;100.00;102154.69;2566062;30;137730;-38
2022/01/10 15:33:40;;;;;;;22.25;9.23;;;4.10;99.90;;;2.04;100.00;102158.38;2568418;30;137385;-38
2022/01/10 15:36:08;;;;;;;26.42;9.75;;;3.90;99.90;;;1.92;100.00;102159.38;2566598;30;137132;-37
2022/01/10 15:38:38;;;;;;;;;;;3.80;99.90;;;1.83;100.00;102163.66;2567747;30;137477;-38
2022/01/10 15:41:05;;;;;;;21.77;9.02;;;3.70;99.90;;;1.69;100.00;102170.13;2567269;30;138850;-38
2022/01/10 15:43:33;;;;;;;21.38;9.05;;;3.60;99.90;;;1.58;100.00;102174.50;2568183;30;137726;-38
2022/01/10 15:46:02;;;;;;;20.08;8.68;;;3.50;99.90;;;1.42;100.00;102172.13;2568292;30;138508;-38
2022/01/10 15:48:31;;;;;;;16.95;8.93;;;3.40;99.90;;;1.28;100.00;102178.59;2568913;30;138146;-37
2022/01/10 15:50:58;;;;;;;17.75;8.35;;;3.20;99.90;;;1.16;100.00;102190.28;2568179;30;137118;-38
2022/01/10 15:53:26;;;;;;;17.73;8.70;;;3.10;99.90;;;1.05;100.00;102190.22;2569241;30;136889;-37
2022/01/10 15:55:53;;;;;;;19.02;8.98;;;3.00;99.90;;;0.97;100.00;102190.84;2567778;30;138206;-38
2022/01/10 15:58:21;;;;;;;18.95;8.50;;;;;;;0.87;100.00;102198.72;2569095;30;137356;-38
2022/01/10 16:00:51;;;;;;;17.95;8.20;;;;;;;0.76;100.00;102193.28;2568492;30;137375;-37
2022/01/10 16:03:18;;;;;;;16.05;7.80;;;;;;;0.66;100.00;102199.34;2568169;30;138408;-37
2022/01/10 16:05:48;;;;;;;21.70;8.68;;;;;;;0.54;100.00;102211.00;2567033;30;137257;-38
2022/01/10 16:08:20;;;;;;;19.90;8.88;;;;;;;0.43;100.00;102206.41;2567794;30;137523;-38
2022/01/10 16:10:50;;;;;;;15.80;7.57;;;;;;;0.34;100.00;102209.75;2568976;30;138292;-37
2022/01/10 16:13:20;;;;;;;16.13;7.70;;;;;;;0.29;100.00;102210.09;2568238;30;138104;-37
2022/01/10 16:15:49;;;;;;;17.23;7.75;;;;;;;0.21;100.00;102218.72;2568033;30;139111;-38
2022/01/10 16:18:18;;;;;;;15.70;7.75;;;;;;;0.11;100.00;102223.00;2568940;30;136974;-38
2022/01/10 16:20:46;;;;;;;16.77;8.38;;;;;;;0.04;100.00;102221.72;2567764;30;137445;-37
2022/01/10 16:23:15;;;;;;;20.33;7.85;;;;;;;-0.05;100.00;102231.28;2568508;30;137044;-37
2022/01/10 16:25:44;;;;;;;22.65;8.60;;;;;;;-0.14;100.00;102238.16;2568915;30;137114;-37
2022/01/10 16:28:13;;;;;;;19.02;9.25;;;;;;;-0.18;100.00;102242.00;2566065;30;137757;-37